createdAt,value
2023-03-05T00:01:33.492Z,41.03
2023-03-05T00:04:35.114Z,43.60
2023-03-05T00:07:36.675Z,39.97
2023-03-05T00:10:38.253Z,42.53
2023-03-05T00:13:39.859Z,45.38
2023-03-05T00:16:41.351Z,40.22
2023-03-05T00:19:43.081Z,39.28
2023-03-05T00:22:44.576Z,36.37
2023-03-05T00:25:46.641Z,37.70
2023-03-05T00:28:50.000Z,44.30
2023-03-05T00:31:51.511Z,35.72
2023-03-05T00:34:53.017Z,36.03
2023-03-05T00:37:54.537Z,35.92
2023-03-05T00:40:56.048Z,40.53
2023-03-05T00:43:57.696Z,41.90
2023-03-05T00:46:59.217Z,34.55
2023-03-05T00:50:00.863Z,35.00
2023-03-05T00:53:02.571Z,39.75
2023-03-05T00:56:04.299Z,37.92
2023-03-05T00:59:05.822Z,37.90
2023-03-05T01:02:07.301Z,41.90
2023-03-05T01:05:11.783Z,36.35
2023-03-05T01:08:13.320Z,34.90
2023-03-05T01:11:14.807Z,44.38
2023-03-05T01:14:16.317Z,35.03
2023-03-05T01:17:17.839Z,32.55
2023-03-05T01:20:20.145Z,35.28
2023-03-05T01:23:21.641Z,39.50
2023-03-05T01:26:23.189Z,39.38
2023-03-05T01:29:24.763Z,43.20
2023-03-05T01:32:26.317Z,35.63
2023-03-05T01:35:27.955Z,36.60
2023-03-05T01:38:29.501Z,37.00
2023-03-05T01:41:34.044Z,33.60
2023-03-05T01:44:35.537Z,39.03
2023-03-05T01:47:37.410Z,34.85
2023-03-05T01:50:38.897Z,44.20
2023-03-05T01:53:40.379Z,35.30
2023-03-05T01:56:42.002Z,38.30
2023-03-05T01:59:44.640Z,34.05
2023-03-05T02:05:48.864Z,41.45
2023-03-05T02:08:50.383Z,44.88
2023-03-05T02:11:51.914Z,34.72
2023-03-05T02:14:59.088Z,35.00
2023-03-05T02:18:01.353Z,41.47
2023-03-05T02:21:05.284Z,36.72
2023-03-05T02:24:07.006Z,38.75
2023-03-05T02:27:08.545Z,34.03
2023-03-05T02:30:10.705Z,40.25
2023-03-05T02:33:14.162Z,28.42
2023-03-05T02:36:15.610Z,31.80
2023-03-05T02:39:17.340Z,25.67
2023-03-05T02:42:18.843Z,42.35
2023-03-05T02:45:20.394Z,37.28
2023-03-05T02:48:21.900Z,33.45
2023-03-05T02:51:23.366Z,32.60
2023-03-05T02:54:24.875Z,40.08
2023-03-05T02:57:26.384Z,33.17
2023-03-05T03:00:27.962Z,36.45
2023-03-05T03:03:30.083Z,32.65
2023-03-05T03:06:31.605Z,33.60
2023-03-05T03:09:34.916Z,38.78
2023-03-05T03:12:39.961Z,37.05
2023-03-05T03:15:41.454Z,34.85
2023-03-05T03:18:44.091Z,41.67
2023-03-05T03:24:46.911Z,32.03
2023-03-05T03:27:48.450Z,32.47
2023-03-05T03:30:50.175Z,35.92
2023-03-05T03:33:51.719Z,32.60
2023-03-05T03:36:53.191Z,32.33
2023-03-05T03:39:54.702Z,35.28
2023-03-05T03:42:56.180Z,33.42
2023-03-05T03:45:57.653Z,40.13
2023-03-05T03:48:59.180Z,34.65
2023-03-05T03:52:00.677Z,39.05
2023-03-05T03:55:02.194Z,41.33
2023-03-05T03:58:04.168Z,34.38
2023-03-05T04:01:05.722Z,34.03
2023-03-05T04:04:07.335Z,33.20
2023-03-05T04:07:08.926Z,34.38
2023-03-05T04:10:11.533Z,30.10
2023-03-05T04:13:13.002Z,29.95
2023-03-05T04:16:15.078Z,29.95
2023-03-05T04:19:16.680Z,27.65
2023-03-05T04:22:18.201Z,33.72
2023-03-05T04:25:19.775Z,31.20
2023-03-05T04:28:21.321Z,44.22
2023-03-05T04:31:23.781Z,36.75
2023-03-05T04:34:25.354Z,32.20
2023-03-05T04:37:26.845Z,38.70
2023-03-05T04:40:28.375Z,30.33
2023-03-05T04:43:29.974Z,38.40
2023-03-05T04:46:31.530Z,38.50
2023-03-05T04:49:33.013Z,37.45
2023-03-05T04:52:34.522Z,33.03
2023-03-05T04:55:36.040Z,34.55
2023-03-05T04:58:37.542Z,31.63
2023-03-05T05:01:39.281Z,34.35
2023-03-05T05:04:44.916Z,31.00
2023-03-05T05:07:47.045Z,33.08
2023-03-05T05:11:08.834Z,30.77
2023-03-05T05:14:10.385Z,32.28
2023-03-05T05:17:11.878Z,37.30
2023-03-05T05:20:14.256Z,27.27
2023-03-05T05:23:15.925Z,29.30
2023-03-05T05:26:17.405Z,28.55
2023-03-05T05:29:18.880Z,30.75
2023-03-05T05:32:20.993Z,30.10
2023-03-05T05:35:22.526Z,34.05
2023-03-05T05:38:24.032Z,35.55
2023-03-05T05:41:25.494Z,28.02
2023-03-05T05:44:26.973Z,29.05
2023-03-05T05:47:29.387Z,26.60
2023-03-05T05:50:30.918Z,33.40
2023-03-05T05:53:32.413Z,30.05
2023-03-05T05:56:33.952Z,35.88
2023-03-05T05:59:35.457Z,31.95
2023-03-05T06:02:40.700Z,30.73
2023-03-05T06:05:42.795Z,33.75
2023-03-05T06:08:44.266Z,23.85
2023-03-05T06:11:45.794Z,31.33
2023-03-05T06:14:47.534Z,28.52
2023-03-05T06:17:49.041Z,27.50
2023-03-05T06:20:57.834Z,29.23
2023-03-05T06:23:59.350Z,29.27
2023-03-05T06:27:00.841Z,31.30
2023-03-05T06:30:02.451Z,31.13
2023-03-05T06:33:03.924Z,31.45
2023-03-05T06:36:06.603Z,40.72
2023-03-05T06:42:10.132Z,24.48
2023-03-05T06:45:11.842Z,31.48
2023-03-05T06:48:13.432Z,27.20
2023-03-05T06:51:16.763Z,35.67
2023-03-05T06:54:18.495Z,29.90
2023-03-05T06:57:19.983Z,31.27
2023-03-05T07:00:21.981Z,30.00
2023-03-05T07:03:24.194Z,23.77
2023-03-05T07:06:27.378Z,31.83
2023-03-05T07:09:29.040Z,31.00
2023-03-05T07:12:30.506Z,30.63
2023-03-05T07:15:32.012Z,33.15
2023-03-05T07:18:33.569Z,30.02
2023-03-05T07:21:37.436Z,27.30
2023-03-05T07:24:40.679Z,35.22
2023-03-05T07:27:42.142Z,37.67
2023-03-05T07:30:43.718Z,30.10
2023-03-05T07:33:48.839Z,28.73
2023-03-05T07:36:51.468Z,23.27
2023-03-05T07:42:54.578Z,27.08
2023-03-05T07:45:56.205Z,28.10
2023-03-05T07:48:57.727Z,28.42
2023-03-05T07:51:59.230Z,26.38
2023-03-05T07:55:00.736Z,29.08
2023-03-05T07:58:02.250Z,29.98
2023-03-05T08:01:03.986Z,23.48
2023-03-05T08:04:05.809Z,26.73
2023-03-05T08:07:07.318Z,38.60
2023-03-05T08:10:09.585Z,27.13
2023-03-05T08:13:11.107Z,31.55
2023-03-05T08:16:14.512Z,30.73
2023-03-05T08:19:16.085Z,36.60
2023-03-05T08:22:20.455Z,32.45
2023-03-05T08:25:22.034Z,37.08
2023-03-05T08:28:23.703Z,29.38
2023-03-05T08:31:26.017Z,33.95
2023-03-05T08:34:27.511Z,35.72
2023-03-05T08:37:28.971Z,32.83
2023-03-05T08:40:30.477Z,44.05
2023-03-05T08:43:33.195Z,28.13
2023-03-05T08:49:37.259Z,26.80
2023-03-05T08:52:38.756Z,29.67
2023-03-05T08:55:40.224Z,25.67
2023-03-05T08:58:41.842Z,32.25
2023-03-05T09:01:43.425Z,29.50
2023-03-05T09:04:44.939Z,30.40
2023-03-05T09:07:46.467Z,31.98
2023-03-05T09:10:47.993Z,31.85
2023-03-05T09:13:49.475Z,30.58
2023-03-05T09:16:51.011Z,33.22
2023-03-05T09:19:52.605Z,29.67
2023-03-05T09:22:54.144Z,34.90
2023-03-05T09:25:55.634Z,33.80
2023-03-05T09:28:57.172Z,32.25
2023-03-05T09:31:58.836Z,29.77
2023-03-05T09:35:00.402Z,33.17
2023-03-05T09:38:02.184Z,33.00
2023-03-05T09:41:31.966Z,25.33
2023-03-05T09:45:03.450Z,42.70
2023-03-05T09:48:13.160Z,31.73
2023-03-05T09:51:26.024Z,29.27
2023-03-05T09:57:43.456Z,31.42
2023-03-05T10:00:54.342Z,31.75
2023-03-05T10:04:01.971Z,31.65
2023-03-05T10:07:19.537Z,28.52
2023-03-05T10:10:24.973Z,32.53
2023-03-05T10:13:30.161Z,50.75
2023-03-05T10:16:40.890Z,33.25
2023-03-05T10:20:06.208Z,38.28
2023-03-05T10:23:25.844Z,39.38
2023-03-05T10:26:33.661Z,36.90
2023-03-05T10:29:58.011Z,38.08
2023-03-05T10:33:00.852Z,44.00
2023-03-05T10:36:14.476Z,30.45
2023-03-05T10:39:34.342Z,31.13
2023-03-05T10:42:48.312Z,33.78
2023-03-05T10:45:53.765Z,31.58
2023-03-05T10:48:58.721Z,33.03
2023-03-05T10:52:18.359Z,26.98
2023-03-05T10:55:21.532Z,32.42
2023-03-05T10:58:24.827Z,41.88
2023-03-05T11:01:28.105Z,33.78
2023-03-05T11:04:29.969Z,28.23
2023-03-05T11:07:33.569Z,39.30
2023-03-05T11:10:35.041Z,29.88
2023-03-05T11:13:38.324Z,43.55
2023-03-05T11:16:47.855Z,33.88
2023-03-05T11:19:49.350Z,32.95
2023-03-05T11:23:09.521Z,33.05
2023-03-05T11:26:13.857Z,34.17
2023-03-05T11:29:36.633Z,39.17
2023-03-05T11:32:38.279Z,36.88
2023-03-05T11:35:40.935Z,37.33
2023-03-05T11:41:59.286Z,40.00
2023-03-05T11:45:00.803Z,42.80
2023-03-05T11:48:08.628Z,36.30
2023-03-05T11:51:17.997Z,39.35
2023-03-05T11:54:23.357Z,44.35
2023-03-05T11:57:24.839Z,40.83
2023-03-05T12:00:28.524Z,40.25
2023-03-05T12:03:32.301Z,34.33
2023-03-05T12:06:43.159Z,34.30
2023-03-05T12:09:49.488Z,40.30
2023-03-05T12:12:58.449Z,32.50
2023-03-05T12:16:11.456Z,34.92
2023-03-05T12:19:34.519Z,41.63
2023-03-05T12:25:52.037Z,37.33
2023-03-05T12:28:54.237Z,38.50
2023-03-05T12:31:55.840Z,36.13
2023-03-05T12:35:00.222Z,37.08
2023-03-05T12:38:06.192Z,30.75
2023-03-05T12:41:26.242Z,34.83
2023-03-05T12:44:29.667Z,31.80
2023-03-05T12:47:31.147Z,37.85
2023-03-05T12:50:47.472Z,38.47
2023-03-05T12:53:51.245Z,33.95
2023-03-05T12:56:53.103Z,37.30
2023-03-05T13:00:11.018Z,31.23
2023-03-05T13:03:17.539Z,30.92
2023-03-05T13:06:45.407Z,30.88
2023-03-05T13:09:52.890Z,27.08
2023-03-05T13:12:55.821Z,32.60
2023-03-05T13:15:57.471Z,29.25
2023-03-05T13:19:01.114Z,29.60
2023-03-05T13:22:04.676Z,26.77
2023-03-05T13:25:20.631Z,23.05
2023-03-05T13:28:22.136Z,27.02
2023-03-05T13:31:24.495Z,35.05
2023-03-05T13:34:40.802Z,29.75
2023-03-05T13:37:47.496Z,31.17
2023-03-05T13:41:04.474Z,33.70
2023-03-05T13:44:06.035Z,28.23
2023-03-05T13:47:18.985Z,29.13
2023-03-05T13:50:25.905Z,31.30
2023-03-05T13:53:28.992Z,36.17
2023-03-05T13:56:30.480Z,28.45
2023-03-05T13:59:33.899Z,24.95
2023-03-05T14:02:35.513Z,24.65
2023-03-05T14:05:37.054Z,21.48
2023-03-05T14:08:38.625Z,22.65
2023-03-05T14:11:40.118Z,25.10
2023-03-05T14:14:41.847Z,18.65
2023-03-05T14:17:43.365Z,28.77
2023-03-05T14:21:02.559Z,18.80
2023-03-05T14:24:12.461Z,21.75
2023-03-05T14:27:17.750Z,23.10
2023-03-05T14:30:22.806Z,26.45
2023-03-05T14:33:29.592Z,27.05
2023-03-05T14:36:31.291Z,21.60
2023-03-05T14:39:46.672Z,21.20
2023-03-05T14:43:04.756Z,23.10
2023-03-05T14:46:06.338Z,22.05
2023-03-05T14:49:07.920Z,28.67
2023-03-05T14:52:14.794Z,23.00
2023-03-05T14:55:17.600Z,19.80
2023-03-05T14:58:25.116Z,24.52
2023-03-05T15:01:26.722Z,21.15
2023-03-05T15:04:28.258Z,18.42
2023-03-05T15:07:30.405Z,18.85
2023-03-05T15:10:31.964Z,20.70
2023-03-05T15:13:34.696Z,18.83
2023-03-05T15:16:36.208Z,20.88
2023-03-05T15:19:37.689Z,26.38
2023-03-05T15:22:39.179Z,21.67
2023-03-05T15:25:42.034Z,27.35
2023-03-05T15:28:43.577Z,26.73
2023-03-05T15:31:45.048Z,22.80
2023-03-05T15:34:46.719Z,21.98
2023-03-05T15:37:48.212Z,22.60
2023-03-05T15:40:50.037Z,19.13
2023-03-05T15:43:51.816Z,24.70
2023-03-05T15:46:53.413Z,16.23
2023-03-05T15:49:54.913Z,21.27
2023-03-05T15:52:56.891Z,23.05
2023-03-05T15:55:58.557Z,22.35
2023-03-05T15:59:00.984Z,24.13
2023-03-05T16:02:02.484Z,25.10
2023-03-05T16:05:04.540Z,26.05
2023-03-05T16:08:06.593Z,26.70
2023-03-05T16:11:08.129Z,17.60
2023-03-05T16:14:09.605Z,25.00
2023-03-05T16:17:11.178Z,21.17
2023-03-05T16:20:13.003Z,31.52
2023-03-05T16:23:14.541Z,25.67
2023-03-05T16:26:16.195Z,27.27
2023-03-05T16:29:17.664Z,23.15
2023-03-05T16:32:19.222Z,30.92
2023-03-05T16:35:20.950Z,26.17
2023-03-05T16:38:22.438Z,24.47
2023-03-05T16:41:24.445Z,26.13
2023-03-05T16:44:25.969Z,22.42
2023-03-05T16:47:27.464Z,23.98
2023-03-05T16:50:28.945Z,26.48
2023-03-05T16:53:30.413Z,29.40
2023-03-05T16:56:31.905Z,22.67
2023-03-05T16:59:33.396Z,35.05
2023-03-05T17:02:35.136Z,43.17
2023-03-05T17:05:36.926Z,27.20
2023-03-05T17:08:38.482Z,35.23
2023-03-05T17:11:40.055Z,36.67
2023-03-05T17:14:41.528Z,29.73
2023-03-05T17:17:43.101Z,27.05
2023-03-05T17:20:44.623Z,27.98
2023-03-05T17:23:46.144Z,26.98
2023-03-05T17:26:47.703Z,29.95
2023-03-05T17:29:49.213Z,24.83
2023-03-05T17:32:52.566Z,28.20
2023-03-05T17:35:54.309Z,32.25
2023-03-05T17:38:55.829Z,19.77
2023-03-05T17:41:57.398Z,35.38
2023-03-05T17:44:59.242Z,23.00
2023-03-05T17:48:00.785Z,29.42
2023-03-05T17:51:02.267Z,26.60
2023-03-05T17:54:04.592Z,25.13
2023-03-05T17:57:06.097Z,33.20
2023-03-05T18:00:11.994Z,25.83
2023-03-05T18:03:13.511Z,22.83
2023-03-05T18:06:15.000Z,23.92
2023-03-05T18:09:16.470Z,24.33
2023-03-05T18:12:18.052Z,28.17
2023-03-05T18:15:19.831Z,31.23
2023-03-05T18:18:21.607Z,25.53
2023-03-05T18:21:23.979Z,28.67
2023-03-05T18:24:25.485Z,25.63
2023-03-05T18:27:27.106Z,28.95
2023-03-05T18:30:28.801Z,19.85
2023-03-05T18:33:30.315Z,30.27
2023-03-05T18:36:32.137Z,31.08
2023-03-05T18:39:33.963Z,28.07
2023-03-05T18:42:36.802Z,28.90
2023-03-05T18:45:38.338Z,26.67
2023-03-05T18:48:40.041Z,30.25
2023-03-05T18:51:41.658Z,23.10
2023-03-05T18:54:43.151Z,22.80
2023-03-05T18:57:44.706Z,23.25
2023-03-05T19:00:47.084Z,23.63
2023-03-05T19:03:49.267Z,32.20
2023-03-05T19:06:50.756Z,26.63
2023-03-05T19:09:59.646Z,19.30
2023-03-05T19:13:24.114Z,21.40
2023-03-05T19:16:33.798Z,24.50
2023-03-05T19:19:35.305Z,21.83
2023-03-05T19:22:36.779Z,28.77
2023-03-05T19:25:40.171Z,25.25
2023-03-05T19:28:41.666Z,27.42
2023-03-05T19:31:43.165Z,28.55
2023-03-05T19:34:44.974Z,18.90
2023-03-05T19:37:46.593Z,24.35
2023-03-05T19:40:48.086Z,26.17
2023-03-05T19:43:49.921Z,23.42
2023-03-05T19:46:51.435Z,35.30
2023-03-05T19:49:52.977Z,26.67
2023-03-05T19:52:54.465Z,28.25
2023-03-05T19:55:56.560Z,28.10
2023-03-05T19:58:58.190Z,28.98
2023-03-05T20:02:00.323Z,17.33
2023-03-05T20:05:02.235Z,22.15
2023-03-05T20:08:03.747Z,27.37
2023-03-05T20:11:05.453Z,21.05
2023-03-05T20:14:07.374Z,27.42
2023-03-05T20:17:08.866Z,18.53
2023-03-05T20:20:13.420Z,23.38
2023-03-05T20:23:14.927Z,24.23
2023-03-05T20:26:16.671Z,24.48
2023-03-05T20:29:18.831Z,22.03
2023-03-05T20:32:20.457Z,28.33
2023-03-05T20:35:21.988Z,25.58
2023-03-05T20:38:29.481Z,33.90
2023-03-05T20:41:31.091Z,34.35
2023-03-05T20:44:32.631Z,31.10
2023-03-05T20:47:40.784Z,26.95
2023-03-05T20:50:42.455Z,28.00
2023-03-05T20:53:44.035Z,30.65
2023-03-05T20:56:45.621Z,25.23
2023-03-05T20:59:47.138Z,22.33
2023-03-05T21:02:50.264Z,22.52
2023-03-05T21:05:51.899Z,28.45
2023-03-05T21:08:53.501Z,20.35
2023-03-05T21:11:54.997Z,23.05
2023-03-05T21:14:56.503Z,26.02
2023-03-05T21:17:58.013Z,18.35
2023-03-05T21:20:59.496Z,23.90
2023-03-05T21:24:01.235Z,19.20
2023-03-05T21:27:02.734Z,25.43
2023-03-05T21:30:04.551Z,23.67
2023-03-05T21:33:08.127Z,23.10
2023-03-05T21:36:09.672Z,23.25
2023-03-05T21:39:11.149Z,20.10
2023-03-05T21:42:12.758Z,27.58
2023-03-05T21:45:17.692Z,22.48
2023-03-05T21:48:19.444Z,22.00
2023-03-05T21:51:26.731Z,28.07
2023-03-05T21:54:29.135Z,27.48
2023-03-05T21:57:30.745Z,26.20
2023-03-05T22:00:32.225Z,25.20
2023-03-05T22:03:33.766Z,31.38
2023-03-05T22:06:35.278Z,28.55
2023-03-05T22:09:36.753Z,29.60
2023-03-05T22:13:03.094Z,29.98
2023-03-05T22:16:05.322Z,15.77
2023-03-05T22:19:07.158Z,14.73
2023-03-05T22:22:08.668Z,16.50
2023-03-05T22:25:12.833Z,27.75
2023-03-05T22:28:14.322Z,23.73
2023-03-05T22:31:25.883Z,22.65
2023-03-05T22:34:28.827Z,22.10
2023-03-05T22:37:30.461Z,26.98
2023-03-05T22:40:31.930Z,23.30
2023-03-05T22:43:33.406Z,23.17
2023-03-05T22:46:37.708Z,21.45
2023-03-05T22:49:39.201Z,21.25
2023-03-05T22:52:40.685Z,21.25
2023-03-05T22:55:42.257Z,27.05
2023-03-05T22:58:43.805Z,24.95
2023-03-05T23:01:45.298Z,24.40
2023-03-05T23:04:52.528Z,22.20
2023-03-05T23:07:54.024Z,24.67
2023-03-05T23:10:55.517Z,37.47
2023-03-05T23:13:57.003Z,19.73
2023-03-05T23:16:58.518Z,19.50
2023-03-05T23:19:59.998Z,20.70
2023-03-05T23:23:01.531Z,23.25
2023-03-05T23:26:03.050Z,22.35
2023-03-05T23:29:04.536Z,19.27
2023-03-05T23:32:06.391Z,23.08
2023-03-05T23:35:10.329Z,15.63
2023-03-05T23:38:12.838Z,12.07
2023-03-05T23:41:14.313Z,18.13
2023-03-05T23:44:15.801Z,17.30
2023-03-05T23:47:17.296Z,20.80
2023-03-05T23:50:22.424Z,12.15
2023-03-05T23:53:25.574Z,19.48
2023-03-05T23:56:27.130Z,16.27
2023-03-05T23:59:28.609Z,22.70
